createdAt,value
2018-09-28T00:00:18.665Z,75.89
2018-09-28T00:02:49.431Z,75.76
2018-09-28T00:05:18.945Z,76.67
2018-09-28T00:07:48.367Z,76.15
2018-09-28T00:10:17.839Z,75.89
2018-09-28T00:12:47.293Z,75.79
2018-09-28T00:15:17.485Z,76.13
2018-09-28T00:17:46.843Z,75.49
2018-09-28T00:20:16.232Z,75.72
2018-09-28T00:22:45.689Z,75.73
2018-09-28T00:25:15.168Z,75.51
2018-09-28T00:27:44.613Z,75.28
2018-09-28T00:30:14.031Z,76.22
2018-09-28T00:32:43.557Z,75.36
2018-09-28T00:35:13.013Z,75.63
2018-09-28T00:37:42.371Z,76.03
2018-09-28T00:40:11.853Z,76.12
2018-09-28T00:42:41.369Z,75.91
2018-09-28T00:45:10.818Z,76.08
2018-09-28T00:47:40.277Z,76.24
2018-09-28T00:50:09.722Z,77.14
2018-09-28T00:52:39.143Z,77.18
2018-09-28T00:55:08.558Z,76.32
2018-09-28T00:57:38.059Z,76.21
2018-09-28T01:00:07.504Z,76.67
2018-09-28T01:02:36.910Z,78.61
2018-09-28T01:05:06.442Z,78.01
2018-09-28T01:07:36.034Z,77.42
2018-09-28T01:10:05.666Z,77.53
2018-09-28T01:12:35.219Z,77.66
2018-09-28T01:15:04.838Z,78.11
2018-09-28T01:17:34.256Z,78.12
2018-09-28T01:20:03.761Z,77.58
2018-09-28T01:22:33.222Z,77.55
2018-09-28T01:25:02.636Z,78.25
2018-09-28T01:27:32.098Z,78.68
2018-09-28T01:30:01.592Z,78.64
2018-09-28T01:32:31.153Z,78.28
2018-09-28T01:35:00.877Z,79.24
2018-09-28T01:37:30.289Z,79.05
2018-09-28T01:40:01.042Z,79.31
2018-09-28T01:42:30.758Z,78.75
2018-09-28T01:45:00.187Z,78.50
2018-09-28T01:47:30.012Z,77.67
2018-09-28T01:49:59.931Z,76.85
2018-09-28T01:52:29.380Z,77.24
2018-09-28T01:54:58.793Z,77.10
2018-09-28T01:57:30.492Z,77.53
2018-09-28T01:59:59.932Z,78.46
2018-09-28T02:02:29.319Z,77.83
2018-09-28T02:04:58.766Z,77.38
2018-09-28T02:07:28.540Z,77.98
2018-09-28T02:09:57.942Z,77.81
2018-09-28T02:12:27.888Z,78.02
2018-09-28T02:14:57.281Z,78.18
2018-09-28T02:17:26.808Z,77.55
2018-09-28T02:19:56.224Z,76.92
2018-09-28T02:22:25.719Z,77.39
2018-09-28T02:24:55.176Z,77.70
2018-09-28T02:27:24.615Z,77.02
2018-09-28T02:29:53.945Z,77.17
2018-09-28T02:32:23.247Z,77.11
2018-09-28T02:34:52.562Z,77.25
2018-09-28T02:37:21.897Z,77.77
2018-09-28T02:39:51.252Z,77.55
2018-09-28T02:42:20.576Z,78.30
2018-09-28T02:44:49.921Z,77.75
2018-09-28T02:47:19.302Z,78.73
2018-09-28T02:49:48.619Z,78.20
2018-09-28T02:52:17.935Z,78.33
2018-09-28T02:54:47.265Z,77.13
2018-09-28T02:57:16.589Z,76.58
2018-09-28T02:59:45.990Z,78.13
2018-09-28T03:02:15.316Z,78.70
2018-09-28T03:04:44.669Z,78.37
2018-09-28T03:07:13.939Z,79.51
2018-09-28T03:09:43.317Z,79.20
2018-09-28T03:12:12.630Z,79.21
2018-09-28T03:14:41.965Z,79.05
2018-09-28T03:17:11.253Z,78.30
2018-09-28T03:19:40.583Z,78.47
2018-09-28T03:22:10.007Z,78.19
2018-09-28T03:24:39.396Z,79.06
2018-09-28T03:27:08.748Z,78.32
2018-09-28T03:29:38.147Z,78.15
2018-09-28T03:32:07.614Z,78.42
2018-09-28T03:34:36.937Z,78.44
2018-09-28T03:37:06.266Z,78.11
2018-09-28T03:39:35.704Z,78.50
2018-09-28T03:42:05.007Z,78.48
2018-09-28T03:44:34.378Z,78.25
2018-09-28T03:47:03.717Z,76.84
2018-09-28T03:49:33.029Z,77.84
2018-09-28T03:52:02.342Z,77.69
2018-09-28T03:54:31.657Z,78.73
2018-09-28T03:57:00.975Z,78.06
2018-09-28T03:59:30.300Z,78.49
2018-09-28T04:01:59.636Z,78.94
2018-09-28T04:04:29.032Z,78.31
2018-09-28T04:06:58.389Z,78.57
2018-09-28T04:09:27.751Z,78.51
2018-09-28T04:11:57.096Z,78.55
2018-09-28T04:14:26.413Z,78.24
2018-09-28T04:16:55.767Z,77.25
2018-09-28T04:19:25.099Z,77.49
2018-09-28T04:22:01.603Z,77.56
2018-09-28T04:24:31.992Z,77.46
2018-09-28T04:27:01.327Z,78.43
2018-09-28T04:29:30.654Z,79.50
2018-09-28T04:31:59.999Z,79.85
2018-09-28T04:34:29.369Z,78.52
2018-09-28T04:36:58.679Z,79.48
2018-09-28T04:39:28.012Z,78.79
2018-09-28T04:41:57.340Z,79.25
2018-09-28T04:44:26.665Z,77.97
2018-09-28T04:46:56.012Z,77.45
2018-09-28T04:49:25.337Z,78.03
2018-09-28T04:51:54.703Z,77.74
2018-09-28T04:54:24.098Z,77.15
2018-09-28T04:56:53.503Z,77.99
2018-09-28T04:59:22.828Z,78.09
2018-09-28T05:01:52.156Z,78.32
2018-09-28T05:04:21.479Z,79.09
2018-09-28T05:06:50.843Z,79.08
2018-09-28T05:09:20.211Z,78.73
2018-09-28T05:11:49.674Z,79.28
2018-09-28T05:14:18.980Z,79.96
2018-09-28T05:16:48.311Z,79.82
2018-09-28T05:19:17.671Z,79.00
2018-09-28T05:21:46.965Z,79.69
2018-09-28T05:24:16.278Z,79.62
2018-09-28T05:26:45.616Z,79.46
2018-09-28T05:29:14.933Z,79.38
2018-09-28T05:31:44.457Z,79.34
2018-09-28T05:34:13.668Z,79.16
2018-09-28T05:36:43.055Z,79.89
2018-09-28T05:39:12.409Z,80.18
2018-09-28T05:41:41.844Z,79.76
2018-09-28T05:44:11.256Z,79.81
2018-09-28T05:46:40.617Z,79.52
2018-09-28T05:49:09.950Z,80.28
2018-09-28T05:51:39.292Z,80.39
2018-09-28T05:54:08.776Z,81.01
2018-09-28T05:56:38.119Z,80.72
2018-09-28T05:59:12.897Z,80.06
2018-09-28T06:01:47.521Z,80.14
2018-09-28T06:04:22.189Z,80.03
2018-09-28T06:06:51.532Z,80.26
2018-09-28T06:09:20.870Z,78.77
2018-09-28T06:11:50.257Z,77.65
2018-09-28T06:14:19.594Z,78.17
2018-09-28T06:16:48.993Z,78.17
2018-09-28T06:19:24.983Z,77.71
2018-09-28T06:21:54.340Z,76.87
2018-09-28T06:24:23.654Z,75.63
2018-09-28T06:26:53.315Z,76.13
2018-09-28T06:29:22.679Z,76.28
2018-09-28T06:31:52.049Z,77.14
2018-09-28T06:34:21.400Z,75.59
2018-09-28T06:36:50.744Z,74.19
2018-09-28T06:39:20.095Z,73.61
2018-09-28T06:41:49.607Z,71.31
2018-09-28T06:44:18.931Z,71.75
2018-09-28T06:46:48.266Z,68.65
2018-09-28T06:49:17.619Z,67.33
2018-09-28T06:51:46.963Z,66.21
2018-09-28T06:54:16.334Z,65.17
2018-09-28T06:56:45.671Z,64.15
2018-09-28T06:59:15.011Z,64.53
2018-09-28T07:01:44.342Z,63.54
2018-09-28T07:04:13.906Z,62.89
2018-09-28T07:06:43.237Z,62.95
2018-09-28T07:09:13.553Z,60.49
2018-09-28T07:11:42.901Z,60.84
2018-09-28T07:14:12.267Z,59.82
2018-09-28T07:16:41.695Z,59.30
2018-09-28T07:19:11.006Z,57.11
2018-09-28T07:21:40.339Z,57.77
2018-09-28T07:24:09.697Z,57.86
2018-09-28T07:26:39.029Z,56.75
2018-09-28T07:29:08.379Z,56.76
2018-09-28T07:31:37.726Z,56.57
2018-09-28T07:34:07.125Z,56.47
2018-09-28T07:36:36.634Z,54.81
2018-09-28T07:39:10.121Z,53.67
2018-09-28T07:41:39.515Z,52.34
2018-09-28T07:44:08.991Z,52.29
2018-09-28T07:46:38.432Z,54.48
2018-09-28T07:49:08.090Z,53.41
2018-09-28T07:51:37.409Z,53.73
2018-09-28T07:54:06.836Z,51.24
2018-09-28T07:56:36.245Z,50.00
2018-09-28T07:59:05.608Z,50.79
2018-09-28T08:01:35.097Z,50.91
2018-09-28T08:04:04.543Z,51.84
2018-09-28T08:06:33.823Z,47.51
2018-09-28T08:09:03.211Z,46.97
2018-09-28T08:11:32.552Z,47.51
2018-09-28T08:14:01.907Z,48.63
2018-09-28T08:16:31.229Z,47.86
2018-09-28T08:19:00.610Z,48.01
2018-09-28T08:21:29.967Z,46.87
2018-09-28T08:23:59.318Z,46.58
2018-09-28T08:26:28.659Z,46.40
2018-09-28T08:28:58.021Z,45.97
2018-09-28T08:31:27.428Z,46.81
2018-09-28T08:33:56.754Z,44.96
2018-09-28T08:36:26.153Z,46.40
2018-09-28T08:38:55.459Z,46.79
2018-09-28T08:41:24.903Z,46.03
2018-09-28T08:43:54.228Z,44.75
2018-09-28T08:46:23.560Z,43.60
2018-09-28T08:48:52.897Z,45.44
2018-09-28T08:51:22.225Z,45.59
2018-09-28T08:53:51.641Z,45.19
2018-09-28T08:56:20.972Z,41.66
2018-09-28T08:58:50.288Z,41.37
2018-09-28T09:01:19.612Z,41.87
2018-09-28T09:03:48.949Z,43.40
2018-09-28T09:06:18.261Z,43.32
2018-09-28T09:08:47.566Z,43.36
2018-09-28T09:11:16.924Z,43.29
2018-09-28T09:13:46.316Z,41.42
2018-09-28T09:16:15.680Z,41.65
2018-09-28T09:18:45.025Z,42.95
2018-09-28T09:21:14.340Z,41.71
2018-09-28T09:23:43.687Z,39.20
2018-09-28T09:26:13.041Z,41.39
2018-09-28T09:28:42.376Z,39.74
2018-09-28T09:31:11.702Z,41.22
2018-09-28T09:33:41.023Z,38.89
2018-09-28T09:36:10.374Z,40.05
2018-09-28T09:38:39.700Z,37.96
2018-09-28T09:41:09.036Z,39.24
2018-09-28T09:43:38.427Z,41.40
2018-09-28T09:46:07.994Z,39.35
2018-09-28T09:48:37.502Z,38.54
2018-09-28T09:51:06.904Z,38.87
2018-09-28T09:53:36.275Z,38.22
2018-09-28T09:56:05.605Z,38.47
2018-09-28T09:58:34.923Z,38.66
2018-09-28T10:01:05.169Z,38.88
2018-09-28T10:03:40.427Z,39.45
2018-09-28T10:06:10.982Z,36.39
2018-09-28T10:08:40.304Z,37.84
2018-09-28T10:11:09.661Z,38.33
2018-09-28T10:13:38.978Z,36.85
2018-09-28T10:16:08.317Z,36.31
2018-09-28T10:18:37.628Z,36.43
2018-09-28T10:21:07.355Z,35.49
2018-09-28T10:23:36.818Z,36.73
2018-09-28T10:26:06.144Z,35.74
2018-09-28T10:28:35.538Z,37.26
2018-09-28T10:31:04.976Z,35.55
2018-09-28T10:33:34.354Z,36.88
2018-09-28T10:36:03.643Z,35.49
2018-09-28T10:38:32.954Z,35.78
2018-09-28T10:41:02.444Z,37.28
2018-09-28T10:43:31.627Z,34.58
2018-09-28T10:46:00.990Z,34.43
2018-09-28T10:48:30.292Z,35.20
2018-09-28T10:50:59.666Z,34.27
2018-09-28T10:53:29.003Z,32.75
2018-09-28T10:55:58.428Z,32.82
2018-09-28T10:58:27.833Z,32.22
2018-09-28T11:00:57.221Z,31.98
2018-09-28T11:03:26.591Z,30.88
2018-09-28T11:05:55.848Z,29.92
2018-09-28T11:08:25.213Z,30.60
2018-09-28T11:10:54.494Z,30.77
2018-09-28T11:13:23.875Z,31.05
2018-09-28T11:15:53.252Z,31.51
2018-09-28T11:18:22.578Z,32.36
2018-09-28T11:20:51.919Z,29.55
2018-09-28T11:23:21.232Z,30.16
2018-09-28T11:25:50.561Z,27.52
2018-09-28T11:28:19.909Z,27.23
2018-09-28T11:30:49.229Z,27.41
2018-09-28T11:33:18.664Z,29.74
2018-09-28T11:35:48.680Z,28.76
2018-09-28T11:38:18.113Z,30.68
2018-09-28T11:40:47.444Z,30.48
2018-09-28T11:43:16.791Z,28.94
2018-09-28T11:45:46.195Z,29.43
2018-09-28T11:48:15.554Z,28.95
2018-09-28T11:50:44.866Z,29.54
2018-09-28T11:53:15.697Z,27.90
2018-09-28T11:55:45.046Z,28.92
2018-09-28T11:58:14.390Z,30.09
2018-09-28T12:00:43.696Z,28.58
2018-09-28T12:03:13.033Z,27.96
2018-09-28T12:05:42.343Z,28.95
2018-09-28T12:08:11.659Z,28.35
2018-09-28T12:10:41.012Z,28.58
2018-09-28T12:13:10.783Z,27.56
2018-09-28T12:15:40.454Z,27.70
2018-09-28T12:18:09.786Z,28.87
2018-09-28T12:20:39.097Z,30.16
2018-09-28T12:23:08.452Z,29.46
2018-09-28T12:25:37.823Z,30.35
2018-09-28T12:28:07.206Z,31.00
2018-09-28T12:30:36.608Z,28.16
2018-09-28T12:33:06.146Z,30.07
2018-09-28T12:35:35.486Z,28.59
2018-09-28T12:38:04.858Z,29.07
2018-09-28T12:40:34.179Z,27.73
2018-09-28T12:43:03.526Z,28.84
2018-09-28T12:45:32.859Z,27.92
2018-09-28T12:48:02.199Z,27.92
2018-09-28T12:50:31.540Z,27.70
2018-09-28T12:53:00.890Z,27.71
2018-09-28T12:55:30.242Z,27.66
2018-09-28T12:57:59.597Z,26.44
2018-09-28T13:00:28.959Z,27.34
2018-09-28T13:02:58.303Z,27.16
2018-09-28T13:05:27.651Z,26.30
2018-09-28T13:07:56.990Z,26.31
2018-09-28T13:10:26.318Z,26.24
2018-09-28T13:12:55.786Z,27.58
2018-09-28T13:15:25.191Z,27.17
2018-09-28T13:17:54.515Z,27.96
2018-09-28T13:20:24.073Z,27.95
2018-09-28T13:22:53.308Z,29.27
2018-09-28T13:25:22.637Z,26.74
2018-09-28T13:27:51.979Z,28.19
2018-09-28T13:30:21.301Z,26.69
2018-09-28T13:32:51.254Z,27.68
2018-09-28T13:35:20.558Z,27.19
2018-09-28T13:37:49.961Z,27.85
2018-09-28T13:40:19.355Z,27.48
2018-09-28T13:42:48.798Z,27.29
2018-09-28T13:45:18.119Z,27.81
2018-09-28T13:47:47.430Z,28.49
2018-09-28T13:50:16.826Z,28.58
2018-09-28T13:52:46.733Z,30.10
2018-09-28T13:55:16.033Z,30.66
2018-09-28T13:57:45.493Z,28.86
2018-09-28T14:00:14.839Z,29.76
2018-09-28T14:02:44.239Z,29.79
2018-09-28T14:05:13.555Z,30.45
2018-09-28T14:07:42.978Z,29.98
2018-09-28T14:10:12.333Z,30.13
2018-09-28T14:12:41.629Z,29.06
2018-09-28T14:15:11.648Z,29.27
2018-09-28T14:17:41.060Z,29.43
2018-09-28T14:20:10.432Z,30.76
2018-09-28T14:22:39.762Z,30.49
2018-09-28T14:25:09.097Z,30.19
2018-09-28T14:27:38.399Z,30.40
2018-09-28T14:30:07.852Z,30.95
2018-09-28T14:32:37.228Z,29.97
2018-09-28T14:35:06.620Z,31.95
2018-09-28T14:37:35.987Z,32.63
2018-09-28T14:40:05.388Z,32.20
2018-09-28T14:42:34.890Z,32.01
2018-09-28T14:45:04.271Z,33.03
2018-09-28T14:47:35.771Z,33.62
2018-09-28T14:50:05.304Z,32.66
2018-09-28T14:52:34.778Z,34.48
2018-09-28T14:55:06.319Z,34.21
2018-09-28T14:57:35.833Z,34.38
2018-09-28T15:00:06.475Z,33.84
2018-09-28T15:02:35.942Z,33.47
2018-09-28T15:05:05.665Z,33.10
2018-09-28T15:07:35.086Z,34.28
2018-09-28T15:10:11.610Z,34.21
2018-09-28T15:12:41.003Z,34.09
2018-09-28T15:15:10.401Z,35.69
2018-09-28T15:17:39.791Z,34.33
2018-09-28T15:20:09.234Z,34.95
2018-09-28T15:22:41.140Z,35.03
2018-09-28T15:25:10.620Z,35.54
2018-09-28T15:27:40.410Z,36.18
2018-09-28T15:30:10.077Z,36.09
2018-09-28T15:32:39.495Z,37.66
2018-09-28T15:35:09.138Z,37.09
2018-09-28T15:37:38.945Z,38.36
2018-09-28T15:40:08.822Z,37.94
2018-09-28T15:42:38.269Z,38.99
2018-09-28T15:45:07.750Z,40.74
2018-09-28T15:47:37.188Z,40.26
2018-09-28T15:50:06.753Z,38.44
2018-09-28T15:52:36.171Z,38.93
2018-09-28T15:55:05.863Z,38.76
2018-09-28T15:57:35.304Z,38.95
2018-09-28T16:00:04.828Z,39.02
2018-09-28T16:02:34.348Z,40.83
2018-09-28T16:05:03.882Z,39.08
2018-09-28T16:07:34.877Z,38.48
2018-09-28T16:10:04.257Z,38.56
2018-09-28T16:12:33.860Z,39.11
2018-09-28T16:15:03.461Z,40.32
2018-09-28T16:17:32.876Z,39.79
2018-09-28T16:20:02.713Z,40.33
2018-09-28T16:22:32.343Z,40.89
2018-09-28T16:25:01.686Z,39.81
2018-09-28T16:27:31.107Z,40.78
2018-09-28T16:30:00.566Z,42.88
2018-09-28T16:32:34.005Z,43.77
2018-09-28T16:35:03.446Z,46.03
2018-09-28T16:37:33.270Z,46.98
2018-09-28T16:40:04.105Z,47.52
2018-09-28T16:42:34.363Z,49.17
2018-09-28T16:45:03.813Z,48.87
2018-09-28T16:47:33.214Z,49.98
2018-09-28T16:50:02.594Z,50.14
2018-09-28T16:52:32.055Z,51.20
2018-09-28T16:55:01.541Z,51.99
2018-09-28T16:57:31.030Z,52.76
2018-09-28T17:00:00.424Z,53.66
2018-09-28T17:02:29.768Z,53.26
2018-09-28T17:04:59.444Z,53.42
2018-09-28T17:07:29.460Z,54.22
2018-09-28T17:09:58.852Z,54.80
2018-09-28T17:12:32.190Z,54.81
2018-09-28T17:15:03.579Z,55.63
2018-09-28T17:17:33.290Z,56.31
2018-09-28T17:20:06.617Z,56.37
2018-09-28T17:22:35.993Z,56.75
2018-09-28T17:25:05.483Z,57.64
2018-09-28T17:27:34.872Z,56.93
2018-09-28T17:30:04.279Z,56.97
2018-09-28T17:32:33.752Z,55.56
2018-09-28T17:35:03.166Z,56.14
2018-09-28T17:37:34.398Z,55.13
2018-09-28T17:42:43.596Z,55.32
2018-09-28T17:45:13.443Z,55.13
2018-09-28T17:47:42.878Z,55.01
2018-09-28T17:50:12.324Z,54.39
2018-09-28T17:53:02.233Z,54.11
2018-09-28T17:55:31.840Z,54.40
2018-09-28T17:58:01.207Z,54.15
2018-09-28T18:00:30.623Z,50.93
2018-09-28T18:03:02.016Z,50.40
2018-09-28T18:05:31.792Z,49.21
2018-09-28T18:08:01.240Z,51.67
2018-09-28T18:10:31.497Z,52.85
2018-09-28T18:13:01.204Z,53.06
2018-09-28T18:15:30.595Z,53.38
2018-09-28T18:18:00.004Z,52.59
2018-09-28T18:20:29.663Z,51.44
2018-09-28T18:22:59.263Z,51.54
2018-09-28T18:25:28.702Z,50.69
2018-09-28T18:27:58.081Z,50.40
2018-09-28T18:30:27.473Z,50.65
2018-09-28T18:32:57.844Z,50.88
2018-09-28T18:35:27.243Z,53.19
2018-09-28T18:37:56.843Z,53.13
2018-09-28T18:40:26.447Z,53.22
2018-09-28T18:42:56.022Z,53.67
2018-09-28T18:45:25.371Z,53.18
2018-09-28T18:47:54.951Z,54.38
2018-09-28T18:50:24.351Z,54.11
2018-09-28T18:52:53.942Z,53.84
2018-09-28T18:55:23.378Z,54.54
2018-09-28T18:57:53.094Z,54.64
2018-09-28T19:00:22.559Z,55.61
2018-09-28T19:02:51.965Z,55.62
2018-09-28T19:05:21.335Z,55.36
2018-09-28T19:07:50.732Z,55.08
2018-09-28T19:10:20.217Z,55.14
2018-09-28T19:12:49.756Z,55.56
2018-09-28T19:15:19.263Z,55.36
2018-09-28T19:17:49.276Z,56.43
2018-09-28T19:20:19.110Z,56.08
2018-09-28T19:22:49.132Z,55.98
2018-09-28T19:25:18.536Z,56.90
2018-09-28T19:27:48.416Z,56.92
2018-09-28T19:30:17.901Z,56.88
2018-09-28T19:32:48.227Z,56.38
2018-09-28T19:35:17.597Z,56.85
2018-09-28T19:37:47.146Z,57.40
2018-09-28T19:40:16.843Z,57.12
2018-09-28T19:42:46.253Z,58.11
2018-09-28T19:45:15.937Z,57.81
2018-09-28T19:47:45.507Z,58.04
2018-09-28T19:50:14.936Z,57.85
2018-09-28T19:52:44.329Z,58.48
2018-09-28T19:55:13.875Z,59.64
2018-09-28T19:57:45.184Z,58.94
2018-09-28T20:00:14.622Z,59.66
2018-09-28T20:02:45.702Z,59.55
2018-09-28T20:05:15.182Z,59.75
2018-09-28T20:07:44.648Z,60.56
2018-09-28T20:10:14.016Z,60.23
2018-09-28T20:12:44.522Z,60.29
2018-09-28T20:15:13.924Z,61.04
2018-09-28T20:17:43.308Z,60.38
2018-09-28T20:20:12.752Z,60.50
2018-09-28T20:22:42.188Z,60.47
2018-09-28T20:25:11.647Z,59.85
2018-09-28T20:27:41.101Z,60.07
2018-09-28T20:30:10.504Z,60.25
2018-09-28T20:32:40.791Z,61.29
2018-09-28T20:35:10.329Z,62.51
2018-09-28T20:37:39.799Z,65.05
2018-09-28T20:40:09.214Z,64.56
2018-09-28T20:42:39.520Z,64.92
2018-09-28T20:45:08.920Z,65.46
2018-09-28T20:47:38.354Z,64.72
2018-09-28T20:50:07.693Z,66.11
2018-09-28T20:52:37.063Z,66.25
2018-09-28T20:55:06.400Z,67.06
2018-09-28T20:57:35.780Z,68.68
2018-09-28T21:00:05.492Z,73.33
2018-09-28T21:02:34.825Z,73.14
2018-09-28T21:05:04.184Z,74.29
2018-09-28T21:07:33.616Z,77.12
2018-09-28T21:10:02.945Z,78.38
2018-09-28T21:12:32.374Z,79.04
2018-09-28T21:15:01.747Z,79.33
2018-09-28T21:17:31.067Z,80.74
2018-09-28T21:20:00.375Z,79.77
2018-09-28T21:22:29.697Z,80.38
2018-09-28T21:24:59.020Z,79.34
2018-09-28T21:27:28.337Z,80.46
2018-09-28T21:29:57.695Z,80.11
2018-09-28T21:32:27.044Z,79.30
2018-09-28T21:34:56.370Z,79.05
2018-09-28T21:37:25.742Z,76.73
2018-09-28T21:39:55.136Z,79.52
2018-09-28T21:42:24.484Z,77.48
2018-09-28T21:44:53.836Z,78.59
2018-09-28T21:47:23.184Z,77.44
2018-09-28T21:49:52.583Z,78.76
2018-09-28T21:52:21.922Z,78.83
2018-09-28T21:54:51.385Z,77.32
2018-09-28T21:57:20.717Z,78.38
2018-09-28T21:59:50.050Z,78.08
2018-09-28T22:02:19.366Z,76.40
2018-09-28T22:04:48.757Z,78.59
2018-09-28T22:07:18.059Z,77.87
2018-09-28T22:09:47.394Z,79.61
2018-09-28T22:12:16.712Z,79.36
2018-09-28T22:14:46.017Z,80.72
2018-09-28T22:17:15.332Z,80.90
2018-09-28T22:19:44.676Z,79.40
2018-09-28T22:22:14.003Z,79.45
2018-09-28T22:24:43.406Z,80.00
2018-09-28T22:27:12.820Z,80.27
2018-09-28T22:29:42.139Z,79.47
2018-09-28T22:32:11.498Z,80.69
2018-09-28T22:34:40.828Z,80.83
2018-09-28T22:37:10.133Z,80.84
2018-09-28T22:39:39.445Z,80.93
2018-09-28T22:42:08.784Z,79.39
2018-09-28T22:44:38.128Z,79.96
2018-09-28T22:47:07.480Z,80.88
2018-09-28T22:49:36.815Z,80.49
2018-09-28T22:52:06.125Z,80.17
2018-09-28T22:54:35.450Z,79.48
2018-09-28T22:57:04.867Z,79.21
2018-09-28T22:59:34.171Z,77.85
2018-09-28T23:02:03.874Z,81.03
2018-09-28T23:04:33.181Z,78.14
2018-09-28T23:07:02.502Z,78.44
2018-09-28T23:09:31.809Z,76.11
2018-09-28T23:12:01.188Z,77.38
2018-09-28T23:14:30.522Z,76.95
2018-09-28T23:16:59.887Z,78.27
2018-09-28T23:19:29.225Z,77.50
2018-09-28T23:21:58.574Z,78.30
2018-09-28T23:24:27.896Z,78.55
2018-09-28T23:26:57.214Z,78.56
2018-09-28T23:29:26.539Z,79.12
2018-09-28T23:31:55.860Z,78.04
2018-09-28T23:34:25.341Z,77.76
2018-09-28T23:36:54.672Z,77.86
2018-09-28T23:39:23.997Z,77.10
2018-09-28T23:41:53.424Z,78.11
2018-09-28T23:44:22.805Z,78.31
2018-09-28T23:46:52.150Z,76.52
2018-09-28T23:49:21.487Z,76.26
2018-09-28T23:51:51.444Z,77.28
2018-09-28T23:54:20.787Z,79.79
2018-09-28T23:56:50.109Z,77.42
2018-09-28T23:59:19.424Z,76.86
